createdAt,value
2019-06-26T00:00:07.082Z,22.85
2019-06-26T00:02:32.845Z,21.48
2019-06-26T00:04:58.648Z,22.45
2019-06-26T00:07:24.311Z,22.70
2019-06-26T00:09:49.990Z,22.58
2019-06-26T00:12:15.974Z,21.07
2019-06-26T00:14:41.652Z,21.70
2019-06-26T00:17:07.418Z,21.85
2019-06-26T00:19:33.368Z,21.35
2019-06-26T00:21:59.020Z,26.87
2019-06-26T00:24:24.695Z,26.17
2019-06-26T00:26:50.833Z,28.60
2019-06-26T00:29:16.717Z,29.98
2019-06-26T00:31:42.390Z,23.67
2019-06-26T00:34:08.074Z,27.22
2019-06-26T00:36:33.850Z,25.27
2019-06-26T00:38:59.519Z,26.57
2019-06-26T00:41:25.209Z,27.45
2019-06-26T00:43:50.869Z,25.20
2019-06-26T00:46:16.638Z,28.92
2019-06-26T00:48:42.402Z,27.05
2019-06-26T00:51:08.110Z,21.68
2019-06-26T00:53:33.845Z,21.80
2019-06-26T00:55:59.552Z,20.05
2019-06-26T00:58:25.216Z,21.07
2019-06-26T01:00:51.096Z,20.37
2019-06-26T01:03:16.871Z,20.82
2019-06-26T01:05:42.859Z,27.45
2019-06-26T01:08:08.523Z,24.92
2019-06-26T01:10:34.376Z,21.70
2019-06-26T01:13:00.355Z,28.60
2019-06-26T01:15:26.022Z,20.60
2019-06-26T01:17:52.099Z,21.90
2019-06-26T01:20:17.914Z,20.57
2019-06-26T01:22:43.572Z,24.80
2019-06-26T01:25:09.255Z,21.05
2019-06-26T01:27:34.929Z,20.77
2019-06-26T01:30:00.603Z,27.50
2019-06-26T01:32:26.290Z,23.30
2019-06-26T01:34:51.963Z,23.87
2019-06-26T01:37:17.639Z,20.40
2019-06-26T01:39:43.331Z,25.55
2019-06-26T01:42:09.024Z,17.70
2019-06-26T01:44:34.690Z,19.05
2019-06-26T01:47:00.362Z,28.75
2019-06-26T01:49:26.031Z,18.62
2019-06-26T01:51:51.702Z,26.33
2019-06-26T01:54:17.588Z,18.10
2019-06-26T01:56:43.255Z,23.00
2019-06-26T01:59:08.910Z,25.95
2019-06-26T02:01:34.600Z,25.32
2019-06-26T02:04:00.273Z,27.22
2019-06-26T02:06:26.034Z,21.62
2019-06-26T02:08:51.713Z,22.45
2019-06-26T02:11:17.571Z,20.35
2019-06-26T02:13:43.623Z,25.72
2019-06-26T02:16:09.506Z,23.62
2019-06-26T02:18:37.166Z,20.85
2019-06-26T02:21:02.937Z,25.88
2019-06-26T02:23:28.938Z,22.85
2019-06-26T02:25:54.707Z,24.52
2019-06-26T02:28:20.757Z,22.37
2019-06-26T02:30:46.447Z,29.77
2019-06-26T02:33:12.115Z,24.27
2019-06-26T02:35:37.783Z,25.35
2019-06-26T02:38:03.541Z,30.57
2019-06-26T02:40:29.199Z,28.45
2019-06-26T02:42:54.886Z,24.52
2019-06-26T02:45:20.831Z,27.75
2019-06-26T02:47:46.495Z,18.90
2019-06-26T02:50:12.369Z,19.42
2019-06-26T02:52:38.068Z,24.92
2019-06-26T02:55:04.646Z,26.10
2019-06-26T02:57:30.316Z,24.60
2019-06-26T02:59:56.087Z,25.45
2019-06-26T03:02:21.755Z,21.93
2019-06-26T03:04:47.429Z,29.95
2019-06-26T03:07:13.114Z,19.02
2019-06-26T03:09:38.790Z,21.55
2019-06-26T03:12:04.462Z,27.27
2019-06-26T03:14:32.992Z,19.12
2019-06-26T03:16:58.750Z,26.23
2019-06-26T03:19:24.425Z,23.60
2019-06-26T03:21:50.460Z,19.92
2019-06-26T03:24:16.134Z,22.65
2019-06-26T03:26:41.899Z,26.80
2019-06-26T03:29:07.940Z,25.88
2019-06-26T03:31:33.608Z,18.67
2019-06-26T03:33:59.277Z,22.42
2019-06-26T03:36:24.954Z,23.98
2019-06-26T03:38:50.638Z,22.95
2019-06-26T03:41:16.306Z,25.25
2019-06-26T03:43:41.991Z,24.87
2019-06-26T03:46:07.835Z,21.12
2019-06-26T03:48:33.538Z,20.45
2019-06-26T03:50:59.593Z,21.80
2019-06-26T03:53:25.342Z,25.92
2019-06-26T03:55:51.010Z,24.15
2019-06-26T03:58:16.705Z,26.68
2019-06-26T04:00:42.912Z,23.80
2019-06-26T04:03:09.034Z,22.13
2019-06-26T04:05:34.927Z,24.60
2019-06-26T04:08:00.681Z,26.40
2019-06-26T04:10:26.431Z,27.75
2019-06-26T04:12:52.295Z,26.57
2019-06-26T04:15:18.362Z,28.23
2019-06-26T04:17:44.024Z,25.10
2019-06-26T04:20:10.064Z,25.75
2019-06-26T04:22:35.722Z,26.75
2019-06-26T04:25:01.926Z,26.62
2019-06-26T04:27:27.838Z,30.57
2019-06-26T04:29:53.493Z,21.97
2019-06-26T04:32:19.170Z,29.52
2019-06-26T04:34:44.981Z,26.82
2019-06-26T04:37:10.639Z,28.73
2019-06-26T04:39:36.397Z,26.27
2019-06-26T04:42:02.090Z,21.93
2019-06-26T04:44:27.764Z,21.35
2019-06-26T04:46:53.424Z,26.93
2019-06-26T04:49:19.450Z,27.73
2019-06-26T04:51:45.129Z,25.97
2019-06-26T04:54:10.837Z,26.40
2019-06-26T04:56:36.941Z,22.58
2019-06-26T04:59:02.590Z,19.87
2019-06-26T05:01:28.251Z,16.02
2019-06-26T05:03:53.950Z,18.32
2019-06-26T05:06:19.605Z,20.52
2019-06-26T05:08:45.288Z,28.20
2019-06-26T05:11:12.828Z,22.70
2019-06-26T05:13:38.613Z,21.02
2019-06-26T05:16:14.442Z,25.65
2019-06-26T05:18:32.214Z,20.82
2019-06-26T05:20:57.880Z,27.87
2019-06-26T05:23:23.547Z,23.90
2019-06-26T05:25:49.498Z,26.90
2019-06-26T05:28:15.153Z,21.35
2019-06-26T05:30:40.826Z,23.47
2019-06-26T05:33:06.615Z,29.32
2019-06-26T05:35:35.030Z,27.55
2019-06-26T05:37:59.849Z,27.52
2019-06-26T05:40:25.545Z,29.75
2019-06-26T05:42:51.208Z,24.12
2019-06-26T05:45:16.970Z,22.98
2019-06-26T05:47:42.849Z,28.23
2019-06-26T05:50:09.006Z,24.92
2019-06-26T05:52:34.687Z,27.73
2019-06-26T05:55:00.521Z,27.45
2019-06-26T05:57:26.265Z,33.55
2019-06-26T05:59:51.952Z,27.02
2019-06-26T06:02:17.715Z,30.52
2019-06-26T06:04:43.382Z,24.30
2019-06-26T06:07:09.048Z,30.68
2019-06-26T06:09:34.773Z,23.00
2019-06-26T06:12:00.515Z,22.32
2019-06-26T06:14:26.183Z,22.45
2019-06-26T06:16:52.315Z,21.37
2019-06-26T06:19:17.980Z,17.57
2019-06-26T06:21:43.680Z,17.27
2019-06-26T06:24:09.720Z,16.40
2019-06-26T06:26:35.377Z,16.25
2019-06-26T06:29:01.554Z,17.92
2019-06-26T06:31:27.297Z,15.30
2019-06-26T06:33:52.995Z,14.93
2019-06-26T06:36:18.767Z,12.65
2019-06-26T06:38:44.459Z,13.38
2019-06-26T06:41:10.383Z,14.35
2019-06-26T06:43:36.107Z,15.75
2019-06-26T06:46:01.806Z,11.83
2019-06-26T06:48:27.554Z,11.22
2019-06-26T06:50:53.219Z,13.53
2019-06-26T06:53:19.089Z,12.58
2019-06-26T06:55:44.758Z,11.73
2019-06-26T06:58:10.524Z,10.60
2019-06-26T07:00:36.216Z,8.90
2019-06-26T07:03:01.873Z,9.43
2019-06-26T07:05:27.543Z,9.08
2019-06-26T07:07:53.345Z,7.62
2019-06-26T07:10:19.003Z,8.58
2019-06-26T07:12:44.654Z,11.57
2019-06-26T07:15:11.569Z,8.63
2019-06-26T07:17:37.728Z,7.62
2019-06-26T07:20:04.270Z,7.62
2019-06-26T07:22:29.973Z,7.45
2019-06-26T07:24:55.785Z,10.08
2019-06-26T07:27:21.702Z,9.45
2019-06-26T07:29:47.414Z,11.83
2019-06-26T07:32:13.066Z,8.08
2019-06-26T07:34:38.740Z,7.72
2019-06-26T07:37:04.537Z,8.10
2019-06-26T07:39:30.195Z,8.93
2019-06-26T07:41:55.862Z,9.90
2019-06-26T07:44:21.545Z,7.87
2019-06-26T07:46:47.230Z,7.95
2019-06-26T07:49:12.884Z,8.75
2019-06-26T07:51:38.793Z,8.30
2019-06-26T07:54:04.458Z,12.50
2019-06-26T07:56:30.120Z,9.10
2019-06-26T07:58:55.823Z,10.03
2019-06-26T08:01:21.688Z,8.23
2019-06-26T08:03:47.462Z,10.70
2019-06-26T08:06:13.152Z,9.63
2019-06-26T08:08:38.813Z,8.78
2019-06-26T08:11:06.586Z,14.80
2019-06-26T08:13:32.189Z,10.15
2019-06-26T08:15:57.848Z,9.33
2019-06-26T08:18:23.622Z,9.70
2019-06-26T08:21:07.297Z,11.15
2019-06-26T08:23:17.083Z,11.25
2019-06-26T08:25:42.755Z,9.83
2019-06-26T08:28:08.457Z,15.18
2019-06-26T08:30:34.118Z,10.68
2019-06-26T08:32:59.778Z,11.95
2019-06-26T08:35:25.493Z,13.68
2019-06-26T08:37:51.164Z,15.35
2019-06-26T08:40:16.919Z,12.15
2019-06-26T08:42:42.620Z,12.78
2019-06-26T08:45:08.670Z,12.82
2019-06-26T08:47:34.337Z,12.18
2019-06-26T08:50:00.036Z,14.45
2019-06-26T08:52:25.806Z,12.80
2019-06-26T08:54:51.472Z,16.82
2019-06-26T08:57:17.168Z,14.58
2019-06-26T08:59:42.932Z,15.23
2019-06-26T09:02:08.690Z,15.53
2019-06-26T09:04:34.382Z,16.52
2019-06-26T09:07:00.046Z,17.35
2019-06-26T09:09:25.719Z,17.60
2019-06-26T09:11:51.660Z,14.60
2019-06-26T09:14:17.320Z,15.23
2019-06-26T09:16:42.993Z,18.98
2019-06-26T09:19:09.123Z,16.20
2019-06-26T09:21:34.789Z,16.50
2019-06-26T09:24:00.452Z,15.68
2019-06-26T09:26:26.229Z,22.77
2019-06-26T09:28:51.907Z,22.65
2019-06-26T09:31:17.587Z,18.05
2019-06-26T09:33:43.358Z,17.87
2019-06-26T09:36:09.022Z,19.12
2019-06-26T09:38:34.697Z,14.03
2019-06-26T09:41:00.534Z,22.13
2019-06-26T09:43:26.187Z,20.72
2019-06-26T09:45:52.154Z,22.30
2019-06-26T09:48:18.013Z,16.27
2019-06-26T09:50:43.674Z,21.40
2019-06-26T09:53:09.330Z,21.17
2019-06-26T09:55:35.154Z,15.70
2019-06-26T09:58:00.935Z,17.17
2019-06-26T10:00:26.705Z,16.62
2019-06-26T10:02:52.390Z,22.98
2019-06-26T10:05:18.250Z,16.37
2019-06-26T10:07:43.917Z,14.87
2019-06-26T10:10:09.965Z,22.80
2019-06-26T10:12:35.664Z,12.47
2019-06-26T10:15:01.363Z,22.15
2019-06-26T10:17:27.391Z,12.75
2019-06-26T10:19:54.248Z,12.55
2019-06-26T10:22:20.134Z,13.45
2019-06-26T10:24:46.088Z,16.95
2019-06-26T10:27:11.747Z,11.25
2019-06-26T10:29:37.411Z,15.43
2019-06-26T10:32:03.101Z,12.63
2019-06-26T10:34:28.769Z,12.68
2019-06-26T10:36:54.426Z,19.15
2019-06-26T10:39:20.408Z,17.65
2019-06-26T10:41:46.067Z,15.15
2019-06-26T10:44:11.755Z,15.90
2019-06-26T10:46:37.439Z,17.57
2019-06-26T10:49:03.344Z,12.25
2019-06-26T10:51:29.043Z,17.27
2019-06-26T10:53:55.199Z,18.65
2019-06-26T10:56:21.422Z,14.50
2019-06-26T10:58:47.299Z,14.53
2019-06-26T11:01:13.067Z,13.83
2019-06-26T11:03:38.725Z,12.10
2019-06-26T11:06:04.386Z,16.32
2019-06-26T11:08:30.086Z,15.10
2019-06-26T11:10:55.775Z,17.65
2019-06-26T11:13:21.534Z,14.65
2019-06-26T11:15:47.232Z,15.65
2019-06-26T11:18:12.911Z,20.25
2019-06-26T11:20:39.447Z,14.10
2019-06-26T11:23:07.317Z,18.85
2019-06-26T11:25:32.818Z,17.55
2019-06-26T11:27:58.602Z,26.23
2019-06-26T11:30:24.663Z,22.55
2019-06-26T11:32:50.510Z,20.62
2019-06-26T11:35:16.323Z,20.65
2019-06-26T11:37:42.008Z,21.45
2019-06-26T11:40:07.882Z,24.32
2019-06-26T11:42:33.636Z,22.77
2019-06-26T11:44:59.434Z,25.00
2019-06-26T11:47:25.297Z,17.82
2019-06-26T11:49:59.764Z,22.55
2019-06-26T11:52:18.901Z,20.30
2019-06-26T11:54:44.743Z,20.08
2019-06-26T11:57:10.501Z,16.45
2019-06-26T11:59:36.284Z,17.15
2019-06-26T12:02:01.970Z,15.25
2019-06-26T12:04:27.721Z,19.12
2019-06-26T12:06:53.429Z,25.68
2019-06-26T12:09:19.105Z,19.75
2019-06-26T12:11:44.770Z,18.10
2019-06-26T12:14:10.463Z,23.60
2019-06-26T12:16:36.231Z,18.20
2019-06-26T12:19:02.097Z,13.62
2019-06-26T12:21:28.047Z,10.38
2019-06-26T12:23:53.737Z,15.90
2019-06-26T12:26:19.485Z,24.85
2019-06-26T12:28:45.286Z,19.60
2019-06-26T12:31:10.963Z,16.97
2019-06-26T12:33:36.634Z,22.82
2019-06-26T12:36:02.813Z,15.05
2019-06-26T12:38:28.574Z,13.68
2019-06-26T12:40:54.318Z,14.60
2019-06-26T12:43:20.043Z,15.60
2019-06-26T12:45:45.770Z,14.50
2019-06-26T12:48:11.439Z,19.23
2019-06-26T12:50:37.131Z,14.35
2019-06-26T12:53:02.997Z,14.58
2019-06-26T12:55:32.709Z,15.13
2019-06-26T12:58:11.689Z,14.47
2019-06-26T13:00:24.132Z,13.40
2019-06-26T13:02:49.800Z,11.88
2019-06-26T13:05:15.489Z,15.23
2019-06-26T13:07:41.150Z,15.38
2019-06-26T13:10:07.758Z,11.00
2019-06-26T13:12:33.714Z,20.52
2019-06-26T13:14:59.376Z,14.28
2019-06-26T13:17:25.083Z,16.32
2019-06-26T13:19:50.938Z,14.28
2019-06-26T13:22:17.121Z,14.83
2019-06-26T13:24:44.089Z,11.95
2019-06-26T13:27:10.869Z,14.38
2019-06-26T13:29:36.755Z,17.82
2019-06-26T13:32:02.532Z,10.23
2019-06-26T13:34:28.259Z,11.97
2019-06-26T13:36:53.913Z,14.20
2019-06-26T13:39:19.559Z,13.55
2019-06-26T13:41:45.238Z,14.53
2019-06-26T13:44:10.917Z,22.93
2019-06-26T13:46:36.578Z,14.60
2019-06-26T13:49:02.409Z,17.23
2019-06-26T13:51:28.148Z,18.73
2019-06-26T13:53:53.806Z,16.37
2019-06-26T13:56:19.657Z,19.12
2019-06-26T13:58:45.529Z,13.15
2019-06-26T14:01:11.322Z,18.12
2019-06-26T14:03:37.326Z,13.13
2019-06-26T14:06:02.988Z,18.85
2019-06-26T14:08:31.991Z,20.17
2019-06-26T14:10:56.247Z,14.68
2019-06-26T14:13:21.902Z,17.75
2019-06-26T14:15:47.576Z,15.93
2019-06-26T14:18:13.602Z,15.05
2019-06-26T14:20:39.266Z,19.52
2019-06-26T14:23:05.306Z,16.17
2019-06-26T14:25:31.190Z,15.25
2019-06-26T14:27:56.857Z,19.05
2019-06-26T14:30:22.521Z,19.37
2019-06-26T14:32:48.523Z,15.60
2019-06-26T14:35:14.475Z,14.68
2019-06-26T14:37:40.130Z,12.60
2019-06-26T14:40:06.009Z,10.28
2019-06-26T14:42:31.664Z,13.35
2019-06-26T14:44:57.686Z,17.65
2019-06-26T14:47:23.598Z,19.05
2019-06-26T14:49:49.268Z,12.55
2019-06-26T14:52:15.023Z,16.12
2019-06-26T14:54:40.725Z,12.33
2019-06-26T14:57:06.405Z,13.60
2019-06-26T14:59:32.082Z,12.25
2019-06-26T15:01:57.750Z,13.28
2019-06-26T15:04:23.436Z,20.80
2019-06-26T15:06:49.087Z,9.50
2019-06-26T15:09:15.117Z,16.35
2019-06-26T15:11:40.896Z,11.63
2019-06-26T15:14:06.549Z,12.95
2019-06-26T15:16:32.243Z,10.72
2019-06-26T15:18:59.013Z,10.48
2019-06-26T15:21:24.771Z,14.00
2019-06-26T15:23:51.162Z,9.00
2019-06-26T15:26:16.837Z,8.38
2019-06-26T15:28:42.540Z,17.45
2019-06-26T15:31:08.237Z,13.68
2019-06-26T15:33:36.565Z,13.95
2019-06-26T15:36:01.560Z,14.93
2019-06-26T15:38:27.254Z,14.60
2019-06-26T15:40:52.929Z,11.40
2019-06-26T15:43:18.695Z,11.33
2019-06-26T15:45:44.554Z,8.85
2019-06-26T15:48:10.225Z,9.45
2019-06-26T15:50:35.901Z,9.28
2019-06-26T15:53:01.814Z,10.13
2019-06-26T15:55:27.479Z,8.30
2019-06-26T15:57:53.172Z,10.58
2019-06-26T16:00:19.186Z,7.83
2019-06-26T16:02:44.864Z,12.90
2019-06-26T16:05:10.722Z,10.78
2019-06-26T16:07:36.434Z,11.08
2019-06-26T16:10:03.451Z,5.97
2019-06-26T16:12:29.177Z,12.28
2019-06-26T16:14:55.006Z,13.10
2019-06-26T16:17:34.626Z,13.85
2019-06-26T16:20:00.572Z,14.78
2019-06-26T16:22:32.206Z,14.03
2019-06-26T16:24:54.286Z,13.53
2019-06-26T16:27:20.255Z,8.23
2019-06-26T16:29:48.552Z,10.63
2019-06-26T16:32:13.583Z,8.23
2019-06-26T16:34:39.364Z,11.48
2019-06-26T16:37:05.040Z,8.93
2019-06-26T16:39:30.795Z,9.50
2019-06-26T16:41:56.486Z,10.28
2019-06-26T16:44:22.163Z,16.23
2019-06-26T16:46:47.826Z,9.55
2019-06-26T16:49:13.536Z,8.18
2019-06-26T16:51:39.216Z,17.07
2019-06-26T16:54:04.885Z,13.03
2019-06-26T16:56:30.784Z,10.18
2019-06-26T16:58:56.455Z,14.25
2019-06-26T17:01:22.115Z,10.00
2019-06-26T17:03:47.953Z,12.00
2019-06-26T17:06:13.617Z,8.15
2019-06-26T17:08:39.310Z,9.28
2019-06-26T17:11:04.992Z,12.18
2019-06-26T17:13:30.656Z,9.40
2019-06-26T17:15:56.332Z,8.73
2019-06-26T17:18:22.034Z,9.73
2019-06-26T17:20:47.726Z,8.90
2019-06-26T17:23:13.484Z,8.98
2019-06-26T17:25:39.657Z,11.18
2019-06-26T17:28:05.322Z,9.33
2019-06-26T17:30:31.023Z,7.12
2019-06-26T17:32:56.699Z,12.60
2019-06-26T17:35:22.384Z,10.30
2019-06-26T17:37:48.160Z,9.90
2019-06-26T17:40:14.055Z,14.33
2019-06-26T17:42:39.732Z,8.43
2019-06-26T17:45:05.902Z,12.85
2019-06-26T17:47:31.612Z,9.75
2019-06-26T17:49:57.279Z,9.95
2019-06-26T17:52:22.952Z,16.27
2019-06-26T17:54:48.911Z,13.78
2019-06-26T17:57:14.630Z,11.48
2019-06-26T17:59:40.383Z,9.60
2019-06-26T18:02:06.215Z,12.58
2019-06-26T18:04:32.842Z,6.03
2019-06-26T18:06:58.779Z,12.05
2019-06-26T18:09:24.461Z,16.17
2019-06-26T18:11:50.149Z,8.45
2019-06-26T18:14:15.819Z,10.55
2019-06-26T18:16:42.278Z,9.00
2019-06-26T18:19:08.982Z,9.75
2019-06-26T18:21:34.651Z,12.85
2019-06-26T18:24:00.570Z,12.70
2019-06-26T18:26:26.389Z,10.50
2019-06-26T18:28:52.167Z,8.25
2019-06-26T18:31:17.853Z,13.08
2019-06-26T18:33:44.441Z,14.23
2019-06-26T18:36:10.206Z,10.60
2019-06-26T18:38:35.895Z,13.62
2019-06-26T18:41:01.562Z,15.38
2019-06-26T18:43:27.234Z,10.53
2019-06-26T18:45:52.915Z,7.87
2019-06-26T18:48:18.592Z,10.32
2019-06-26T18:50:44.254Z,11.30
2019-06-26T18:53:10.276Z,11.73
2019-06-26T18:55:35.934Z,9.50
2019-06-26T18:58:01.622Z,10.25
2019-06-26T19:00:27.449Z,14.83
2019-06-26T19:02:53.202Z,10.15
2019-06-26T19:05:18.870Z,6.05
2019-06-26T19:07:45.267Z,6.53
2019-06-26T19:10:11.299Z,10.78
2019-06-26T19:12:36.971Z,6.70
2019-06-26T19:15:04.443Z,9.03
2019-06-26T19:17:30.109Z,9.65
2019-06-26T19:19:55.774Z,7.42
2019-06-26T19:22:21.830Z,8.33
2019-06-26T19:24:47.583Z,10.25
2019-06-26T19:27:13.251Z,9.03
2019-06-26T19:29:39.193Z,6.55
2019-06-26T19:32:04.958Z,4.83
2019-06-26T19:34:30.643Z,7.97
2019-06-26T19:36:56.436Z,5.35
2019-06-26T19:39:22.106Z,5.60
2019-06-26T19:41:47.789Z,6.37
2019-06-26T19:44:13.470Z,9.03
2019-06-26T19:46:41.872Z,7.05
2019-06-26T19:49:06.714Z,6.65
2019-06-26T19:51:32.708Z,6.78
2019-06-26T19:53:58.387Z,5.35
2019-06-26T19:56:24.050Z,7.65
2019-06-26T19:58:49.747Z,6.10
2019-06-26T20:01:15.503Z,4.80
2019-06-26T20:03:41.180Z,8.60
2019-06-26T20:06:06.885Z,7.50
2019-06-26T20:08:32.950Z,5.35
2019-06-26T20:10:58.619Z,7.70
2019-06-26T20:13:24.554Z,8.38
2019-06-26T20:15:50.307Z,5.85
2019-06-26T20:18:16.119Z,8.40
2019-06-26T20:20:41.844Z,6.55
2019-06-26T20:23:07.516Z,4.83
2019-06-26T20:25:33.178Z,6.60
2019-06-26T20:27:59.089Z,6.45
2019-06-26T20:30:26.675Z,5.22
2019-06-26T20:32:52.565Z,9.70
2019-06-26T20:35:18.341Z,8.43
2019-06-26T20:37:44.103Z,7.37
2019-06-26T20:40:09.865Z,5.25
2019-06-26T20:42:35.558Z,7.50
2019-06-26T20:45:01.548Z,7.50
2019-06-26T20:47:27.219Z,9.93
2019-06-26T20:49:53.690Z,11.43
2019-06-26T20:52:19.579Z,7.12
2019-06-26T20:55:00.060Z,9.83
2019-06-26T20:57:13.197Z,4.08
2019-06-26T20:59:38.871Z,6.05
2019-06-26T21:02:05.044Z,6.17
2019-06-26T21:04:30.846Z,8.05
2019-06-26T21:06:56.510Z,6.28
2019-06-26T21:09:22.579Z,5.03
2019-06-26T21:11:48.556Z,5.05
2019-06-26T21:14:14.218Z,4.80
2019-06-26T21:16:42.995Z,5.35
2019-06-26T21:19:08.998Z,7.22
2019-06-26T21:21:34.685Z,7.47
2019-06-26T21:24:00.680Z,6.00
2019-06-26T21:26:26.594Z,7.55
2019-06-26T21:28:52.268Z,6.12
2019-06-26T21:31:18.013Z,5.65
2019-06-26T21:33:43.832Z,5.37
2019-06-26T21:36:09.598Z,7.42
2019-06-26T21:38:35.277Z,8.30
2019-06-26T21:41:00.983Z,5.97
2019-06-26T21:43:26.650Z,5.33
2019-06-26T21:45:52.326Z,9.30
2019-06-26T21:48:18.018Z,4.65
2019-06-26T21:50:43.680Z,7.20
2019-06-26T21:53:09.350Z,8.50
2019-06-26T21:55:35.346Z,5.60
2019-06-26T21:58:01.012Z,7.20
2019-06-26T22:00:29.383Z,7.45
2019-06-26T22:02:57.698Z,6.33
2019-06-26T22:05:22.784Z,5.67
2019-06-26T22:07:48.463Z,9.05
2019-06-26T22:10:15.015Z,8.58
2019-06-26T22:12:40.679Z,6.33
2019-06-26T22:15:06.543Z,5.58
2019-06-26T22:17:32.595Z,6.50
2019-06-26T22:19:58.290Z,6.15
2019-06-26T22:22:23.942Z,9.38
2019-06-26T22:24:49.860Z,5.50
2019-06-26T22:27:15.517Z,5.30
2019-06-26T22:29:41.231Z,8.53
2019-06-26T22:32:06.918Z,9.10
2019-06-26T22:34:32.582Z,7.67
2019-06-26T22:36:58.244Z,5.97
2019-06-26T22:39:23.939Z,6.15
2019-06-26T22:41:49.599Z,8.28
2019-06-26T22:44:15.267Z,6.12
2019-06-26T22:46:40.957Z,6.50
2019-06-26T22:49:06.624Z,9.43
2019-06-26T22:51:32.296Z,6.17
2019-06-26T22:53:58.307Z,6.62
2019-06-26T22:56:24.055Z,8.53
2019-06-26T22:58:49.730Z,7.40
2019-06-26T23:01:15.429Z,6.95
2019-06-26T23:03:41.155Z,6.45
2019-06-26T23:06:06.897Z,4.90
2019-06-26T23:08:32.632Z,6.42
2019-06-26T23:10:58.653Z,4.85
2019-06-26T23:13:24.342Z,7.35
2019-06-26T23:15:50.247Z,6.12
2019-06-26T23:18:15.923Z,10.38
2019-06-26T23:20:41.579Z,5.33
2019-06-26T23:23:07.523Z,8.05
2019-06-26T23:25:33.266Z,6.92
2019-06-26T23:27:58.929Z,7.08
2019-06-26T23:30:24.786Z,3.90
2019-06-26T23:32:50.471Z,8.65
2019-06-26T23:35:16.145Z,5.40
2019-06-26T23:37:41.825Z,8.53
2019-06-26T23:40:07.863Z,10.00
2019-06-26T23:42:33.578Z,8.48
2019-06-26T23:44:59.295Z,6.75
2019-06-26T23:47:25.086Z,7.87
2019-06-26T23:49:50.751Z,3.72
2019-06-26T23:52:16.807Z,5.62
2019-06-26T23:54:42.474Z,7.45
2019-06-26T23:57:08.155Z,10.05
2019-06-26T23:59:33.931Z,9.18
